sensor_id;sensor_type;location;lat;lon;timestamp;temperature;humidity
12815;DHT22;6472;52.328;13.070;2023-03-01T00:01:20;-5.80;99.90
12815;DHT22;6472;52.328;13.070;2023-03-01T00:03:51;-5.90;99.90
12815;DHT22;6472;52.328;13.070;2023-03-01T00:06:20;-5.90;99.90
12815;DHT22;6472;52.328;13.070;2023-03-01T00:08:48;-5.90;99.90
12815;DHT22;6472;52.328;13.070;2023-03-01T00:11:19;-5.90;99.90
12815;DHT22;6472;52.328;13.070;2023-03-01T00:13:49;-5.90;99.90
12815;DHT22;6472;52.328;13.070;2023-03-01T00:16:20;-6.00;99.90
12815;DHT22;6472;52.328;13.070;2023-03-01T00:18:50;-5.90;99.90
12815;DHT22;6472;52.328;13.070;2023-03-01T00:21:20;-6.00;99.90
12815;DHT22;6472;52.328;13.070;2023-03-01T00:23:49;-6.00;99.90
12815;DHT22;6472;52.328;13.070;2023-03-01T00:26:18;-6.00;99.90
12815;DHT22;6472;52.328;13.070;2023-03-01T00:28:47;-6.10;99.90
12815;DHT22;6472;52.328;13.070;2023-03-01T00:31:17;-6.10;99.90
12815;DHT22;6472;52.328;13.070;2023-03-01T00:33:46;-6.10;99.90
12815;DHT22;6472;52.328;13.070;2023-03-01T00:36:16;-6.10;99.90
12815;DHT22;6472;52.328;13.070;2023-03-01T00:38:45;-6.10;99.90
12815;DHT22;6472;52.328;13.070;2023-03-01T00:41:15;-6.10;99.90
12815;DHT22;6472;52.328;13.070;2023-03-01T00:43:44;-6.20;99.90
12815;DHT22;6472;52.328;13.070;2023-03-01T00:46:14;-6.10;99.90
12815;DHT22;6472;52.328;13.070;2023-03-01T00:48:43;-6.20;99.90
12815;DHT22;6472;52.328;13.070;2023-03-01T00:51:13;-6.20;99.90
12815;DHT22;6472;52.328;13.070;2023-03-01T00:53:43;-6.20;99.90
12815;DHT22;6472;52.328;13.070;2023-03-01T00:56:13;-6.20;99.90
12815;DHT22;6472;52.328;13.070;2023-03-01T00:58:42;-6.20;99.90
12815;DHT22;6472;52.328;13.070;2023-03-01T01:01:11;-6.30;99.90
12815;DHT22;6472;52.328;13.070;2023-03-01T01:03:46;-6.20;99.90
12815;DHT22;6472;52.328;13.070;2023-03-01T01:06:17;-6.30;99.90
12815;DHT22;6472;52.328;13.070;2023-03-01T01:08:47;-6.30;99.90
12815;DHT22;6472;52.328;13.070;2023-03-01T01:11:16;-6.30;99.90
12815;DHT22;6472;52.328;13.070;2023-03-01T01:13:45;-6.30;99.90
12815;DHT22;6472;52.328;13.070;2023-03-01T01:16:14;-6.40;99.90
12815;DHT22;6472;52.328;13.070;2023-03-01T01:18:42;-6.40;99.90
12815;DHT22;6472;52.328;13.070;2023-03-01T01:21:12;-6.20;99.90
12815;DHT22;6472;52.328;13.070;2023-03-01T01:23:42;-6.30;99.90
12815;DHT22;6472;52.328;13.070;2023-03-01T01:26:17;-6.30;99.90
12815;DHT22;6472;52.328;13.070;2023-03-01T01:28:46;-6.40;99.90
12815;DHT22;6472;52.328;13.070;2023-03-01T01:31:15;-6.40;99.90
12815;DHT22;6472;52.328;13.070;2023-03-01T01:33:43;-6.40;99.90
12815;DHT22;6472;52.328;13.070;2023-03-01T01:36:12;-6.40;99.90
12815;DHT22;6472;52.328;13.070;2023-03-01T01:38:51;-6.40;99.90
12815;DHT22;6472;52.328;13.070;2023-03-01T01:41:25;-6.50;99.90
12815;DHT22;6472;52.328;13.070;2023-03-01T01:44:22;-6.50;99.90
12815;DHT22;6472;52.328;13.070;2023-03-01T01:46:54;-6.60;99.90
12815;DHT22;6472;52.328;13.070;2023-03-01T01:49:28;-6.60;99.90
12815;DHT22;6472;52.328;13.070;2023-03-01T01:52:01;-6.60;99.90
12815;DHT22;6472;52.328;13.070;2023-03-01T01:54:34;-6.60;99.90
12815;DHT22;6472;52.328;13.070;2023-03-01T01:57:09;-6.60;99.90
12815;DHT22;6472;52.328;13.070;2023-03-01T01:59:39;-6.60;99.90
12815;DHT22;6472;52.328;13.070;2023-03-01T02:02:08;-6.60;99.90
12815;DHT22;6472;52.328;13.070;2023-03-01T02:04:36;-6.60;99.90
12815;DHT22;6472;52.328;13.070;2023-03-01T02:07:09;-6.60;99.90
12815;DHT22;6472;52.328;13.070;2023-03-01T02:09:40;-6.60;99.90
12815;DHT22;6472;52.328;13.070;2023-03-01T02:12:10;-6.60;99.90
12815;DHT22;6472;52.328;13.070;2023-03-01T02:14:38;-6.60;99.90
12815;DHT22;6472;52.328;13.070;2023-03-01T02:17:07;-6.60;99.90
12815;DHT22;6472;52.328;13.070;2023-03-01T02:19:44;-6.60;99.90
12815;DHT22;6472;52.328;13.070;2023-03-01T02:22:22;-6.60;99.90
12815;DHT22;6472;52.328;13.070;2023-03-01T02:25:00;-6.70;99.90
12815;DHT22;6472;52.328;13.070;2023-03-01T02:27:38;-6.70;99.90
12815;DHT22;6472;52.328;13.070;2023-03-01T02:30:11;-6.80;99.90
12815;DHT22;6472;52.328;13.070;2023-03-01T02:32:40;-6.80;99.90
12815;DHT22;6472;52.328;13.070;2023-03-01T02:35:09;-6.80;99.90
12815;DHT22;6472;52.328;13.070;2023-03-01T02:37:40;-6.80;99.90
12815;DHT22;6472;52.328;13.070;2023-03-01T02:40:12;-6.90;99.90
12815;DHT22;6472;52.328;13.070;2023-03-01T02:42:47;-6.90;99.90
12815;DHT22;6472;52.328;13.070;2023-03-01T02:45:18;-6.90;99.90
12815;DHT22;6472;52.328;13.070;2023-03-01T02:47:47;-7.00;99.90
12815;DHT22;6472;52.328;13.070;2023-03-01T02:50:25;-7.00;99.90
12815;DHT22;6472;52.328;13.070;2023-03-01T02:53:05;-7.00;99.90
12815;DHT22;6472;52.328;13.070;2023-03-01T02:55:36;-6.90;99.90
12815;DHT22;6472;52.328;13.070;2023-03-01T02:58:05;-7.00;99.90
12815;DHT22;6472;52.328;13.070;2023-03-01T03:00:37;-7.00;99.90
12815;DHT22;6472;52.328;13.070;2023-03-01T03:03:07;-7.00;99.90
12815;DHT22;6472;52.328;13.070;2023-03-01T03:05:36;-7.00;99.90
12815;DHT22;6472;52.328;13.070;2023-03-01T03:08:04;-7.00;99.90
12815;DHT22;6472;52.328;13.070;2023-03-01T03:10:36;-7.00;99.90
12815;DHT22;6472;52.328;13.070;2023-03-01T03:13:06;-7.00;99.90
12815;DHT22;6472;52.328;13.070;2023-03-01T03:15:37;-7.10;99.90
12815;DHT22;6472;52.328;13.070;2023-03-01T03:18:08;-7.10;99.90
12815;DHT22;6472;52.328;13.070;2023-03-01T03:20:37;-7.10;99.90
12815;DHT22;6472;52.328;13.070;2023-03-01T03:23:07;-7.10;99.90
12815;DHT22;6472;52.328;13.070;2023-03-01T03:25:35;-7.10;99.90
12815;DHT22;6472;52.328;13.070;2023-03-01T03:28:05;-7.10;99.90
12815;DHT22;6472;52.328;13.070;2023-03-01T03:30:39;-7.10;99.90
12815;DHT22;6472;52.328;13.070;2023-03-01T03:33:08;-7.10;99.90
12815;DHT22;6472;52.328;13.070;2023-03-01T03:35:41;-7.10;99.90
12815;DHT22;6472;52.328;13.070;2023-03-01T03:38:12;-7.10;99.90
12815;DHT22;6472;52.328;13.070;2023-03-01T03:40:45;-7.10;99.90
12815;DHT22;6472;52.328;13.070;2023-03-01T03:43:15;-7.10;99.90
12815;DHT22;6472;52.328;13.070;2023-03-01T03:45:46;-7.20;99.90
12815;DHT22;6472;52.328;13.070;2023-03-01T03:48:15;-7.20;99.90
12815;DHT22;6472;52.328;13.070;2023-03-01T03:50:48;-7.20;99.90
12815;DHT22;6472;52.328;13.070;2023-03-01T03:53:17;-7.20;99.90
12815;DHT22;6472;52.328;13.070;2023-03-01T03:55:45;-7.20;99.90
12815;DHT22;6472;52.328;13.070;2023-03-01T03:58:17;-7.20;99.90
12815;DHT22;6472;52.328;13.070;2023-03-01T04:00:50;-7.20;99.90
12815;DHT22;6472;52.328;13.070;2023-03-01T04:03:19;-7.20;99.90
12815;DHT22;6472;52.328;13.070;2023-03-01T04:05:49;-7.30;99.90
12815;DHT22;6472;52.328;13.070;2023-03-01T04:08:18;-7.30;99.90
12815;DHT22;6472;52.328;13.070;2023-03-01T04:10:48;-7.30;99.90
12815;DHT22;6472;52.328;13.070;2023-03-01T04:13:19;-7.30;99.90
12815;DHT22;6472;52.328;13.070;2023-03-01T04:15:50;-7.30;99.90
12815;DHT22;6472;52.328;13.070;2023-03-01T04:18:20;-7.30;99.90
12815;DHT22;6472;52.328;13.070;2023-03-01T04:20:48;-7.40;99.90
12815;DHT22;6472;52.328;13.070;2023-03-01T04:23:19;-7.30;99.90
12815;DHT22;6472;52.328;13.070;2023-03-01T04:25:50;-7.30;99.90
12815;DHT22;6472;52.328;13.070;2023-03-01T04:28:22;-7.30;99.90
12815;DHT22;6472;52.328;13.070;2023-03-01T04:30:57;-7.30;99.90
12815;DHT22;6472;52.328;13.070;2023-03-01T04:33:27;-7.30;99.90
12815;DHT22;6472;52.328;13.070;2023-03-01T04:35:55;-7.30;99.90
12815;DHT22;6472;52.328;13.070;2023-03-01T04:38:24;-7.30;99.90
12815;DHT22;6472;52.328;13.070;2023-03-01T04:40:52;-7.30;99.90
12815;DHT22;6472;52.328;13.070;2023-03-01T04:43:20;-7.30;99.90
12815;DHT22;6472;52.328;13.070;2023-03-01T04:45:48;-7.30;99.90
12815;DHT22;6472;52.328;13.070;2023-03-01T04:48:19;-7.30;99.90
12815;DHT22;6472;52.328;13.070;2023-03-01T04:50:47;-7.30;99.90
12815;DHT22;6472;52.328;13.070;2023-03-01T04:53:15;-7.40;99.90
12815;DHT22;6472;52.328;13.070;2023-03-01T04:55:45;-7.40;99.90
12815;DHT22;6472;52.328;13.070;2023-03-01T04:58:13;-7.40;99.90
12815;DHT22;6472;52.328;13.070;2023-03-01T05:00:41;-7.40;99.90
12815;DHT22;6472;52.328;13.070;2023-03-01T05:03:10;-7.40;99.90
12815;DHT22;6472;52.328;13.070;2023-03-01T05:05:39;-7.40;99.90
12815;DHT22;6472;52.328;13.070;2023-03-01T05:08:09;-7.40;99.90
12815;DHT22;6472;52.328;13.070;2023-03-01T05:10:54;-7.50;99.90
12815;DHT22;6472;52.328;13.070;2023-03-01T05:13:23;-7.50;99.90
12815;DHT22;6472;52.328;13.070;2023-03-01T05:15:57;-7.50;99.90
12815;DHT22;6472;52.328;13.070;2023-03-01T05:18:30;-7.50;99.90
12815;DHT22;6472;52.328;13.070;2023-03-01T05:21:08;-7.50;99.90
12815;DHT22;6472;52.328;13.070;2023-03-01T05:23:43;-7.50;99.90
12815;DHT22;6472;52.328;13.070;2023-03-01T05:26:12;-7.50;99.90
12815;DHT22;6472;52.328;13.070;2023-03-01T05:29:00;-7.60;99.90
12815;DHT22;6472;52.328;13.070;2023-03-01T05:31:28;-7.60;99.90
12815;DHT22;6472;52.328;13.070;2023-03-01T05:33:59;-7.50;99.90
12815;DHT22;6472;52.328;13.070;2023-03-01T05:36:34;-7.50;99.90
12815;DHT22;6472;52.328;13.070;2023-03-01T05:39:08;-7.50;99.90
12815;DHT22;6472;52.328;13.070;2023-03-01T05:41:39;-7.50;99.90
12815;DHT22;6472;52.328;13.070;2023-03-01T05:44:08;-7.50;99.90
12815;DHT22;6472;52.328;13.070;2023-03-01T05:46:42;-7.60;99.90
12815;DHT22;6472;52.328;13.070;2023-03-01T05:49:13;-7.50;99.90
12815;DHT22;6472;52.328;13.070;2023-03-01T05:51:46;-7.60;99.90
12815;DHT22;6472;52.328;13.070;2023-03-01T05:54:15;-7.60;99.90
12815;DHT22;6472;52.328;13.070;2023-03-01T05:56:44;-7.60;99.90
12815;DHT22;6472;52.328;13.070;2023-03-01T05:59:13;-7.60;99.90
12815;DHT22;6472;52.328;13.070;2023-03-01T06:31:25;-7.20;99.90
12815;DHT22;6472;52.328;13.070;2023-03-01T06:33:54;-7.10;99.90
12815;DHT22;6472;52.328;13.070;2023-03-01T06:36:22;-7.00;99.90
12815;DHT22;6472;52.328;13.070;2023-03-01T06:38:54;-7.00;99.90
12815;DHT22;6472;52.328;13.070;2023-03-01T06:41:22;-6.90;99.90
12815;DHT22;6472;52.328;13.070;2023-03-01T06:43:51;-6.80;99.90
12815;DHT22;6472;52.328;13.070;2023-03-01T06:46:21;-6.70;99.90
12815;DHT22;6472;52.328;13.070;2023-03-01T06:48:51;-6.70;99.90
12815;DHT22;6472;52.328;13.070;2023-03-01T06:51:19;-6.60;99.90
12815;DHT22;6472;52.328;13.070;2023-03-01T06:53:47;-6.50;99.90
12815;DHT22;6472;52.328;13.070;2023-03-01T06:56:15;-6.40;99.90
12815;DHT22;6472;52.328;13.070;2023-03-01T06:58:43;-6.30;99.90
12815;DHT22;6472;52.328;13.070;2023-03-01T07:01:11;-6.20;99.90
12815;DHT22;6472;52.328;13.070;2023-03-01T07:03:39;-6.10;99.90
12815;DHT22;6472;52.328;13.070;2023-03-01T07:06:08;-6.10;99.90
12815;DHT22;6472;52.328;13.070;2023-03-01T07:08:36;-6.00;99.90
12815;DHT22;6472;52.328;13.070;2023-03-01T07:11:04;-5.80;99.90
12815;DHT22;6472;52.328;13.070;2023-03-01T07:13:32;-5.70;99.90
12815;DHT22;6472;52.328;13.070;2023-03-01T07:16:00;-5.60;99.90
12815;DHT22;6472;52.328;13.070;2023-03-01T07:18:28;-5.60;99.90
12815;DHT22;6472;52.328;13.070;2023-03-01T07:20:56;-5.40;99.90
12815;DHT22;6472;52.328;13.070;2023-03-01T07:23:26;-5.30;99.90
12815;DHT22;6472;52.328;13.070;2023-03-01T07:25:54;-5.20;99.90
12815;DHT22;6472;52.328;13.070;2023-03-01T07:28:23;-5.10;99.90
12815;DHT22;6472;52.328;13.070;2023-03-01T07:30:51;-5.00;99.90
12815;DHT22;6472;52.328;13.070;2023-03-01T07:33:19;-4.90;99.90
12815;DHT22;6472;52.328;13.070;2023-03-01T07:35:47;-4.80;99.90
12815;DHT22;6472;52.328;13.070;2023-03-01T07:38:15;-4.60;99.90
12815;DHT22;6472;52.328;13.070;2023-03-01T07:40:44;-4.50;99.90
12815;DHT22;6472;52.328;13.070;2023-03-01T07:43:12;-4.40;99.90
12815;DHT22;6472;52.328;13.070;2023-03-01T07:45:40;-4.20;99.90
12815;DHT22;6472;52.328;13.070;2023-03-01T07:48:08;-4.10;99.90
12815;DHT22;6472;52.328;13.070;2023-03-01T07:50:36;-3.90;99.90
12815;DHT22;6472;52.328;13.070;2023-03-01T07:53:04;-3.80;99.90
12815;DHT22;6472;52.328;13.070;2023-03-01T07:55:32;-3.60;99.90
12815;DHT22;6472;52.328;13.070;2023-03-01T07:58:02;-3.50;99.90
12815;DHT22;6472;52.328;13.070;2023-03-01T08:00:30;-3.30;99.90
12815;DHT22;6472;52.328;13.070;2023-03-01T08:02:59;-3.20;99.90
12815;DHT22;6472;52.328;13.070;2023-03-01T08:05:27;-2.90;99.90
12815;DHT22;6472;52.328;13.070;2023-03-01T08:07:55;-2.70;99.90
12815;DHT22;6472;52.328;13.070;2023-03-01T08:10:23;-2.60;99.90
12815;DHT22;6472;52.328;13.070;2023-03-01T08:12:52;-2.40;99.90
12815;DHT22;6472;52.328;13.070;2023-03-01T08:15:21;-2.10;99.90
12815;DHT22;6472;52.328;13.070;2023-03-01T08:17:50;-1.30;99.90
12815;DHT22;6472;52.328;13.070;2023-03-01T08:20:18;-0.40;99.90
12815;DHT22;6472;52.328;13.070;2023-03-01T08:22:46;0.30;99.90
12815;DHT22;6472;52.328;13.070;2023-03-01T08:25:14;1.00;99.90
12815;DHT22;6472;52.328;13.070;2023-03-01T08:27:42;1.80;99.90
12815;DHT22;6472;52.328;13.070;2023-03-01T08:30:11;2.40;99.90
12815;DHT22;6472;52.328;13.070;2023-03-01T08:32:40;3.00;99.90
12815;DHT22;6472;52.328;13.070;2023-03-01T08:35:08;3.70;99.90
12815;DHT22;6472;52.328;13.070;2023-03-01T08:37:36;4.30;99.90
12815;DHT22;6472;52.328;13.070;2023-03-01T08:40:06;4.80;99.90
12815;DHT22;6472;52.328;13.070;2023-03-01T08:42:37;5.30;99.90
12815;DHT22;6472;52.328;13.070;2023-03-01T08:45:05;5.80;99.90
12815;DHT22;6472;52.328;13.070;2023-03-01T08:47:34;6.10;99.90
12815;DHT22;6472;52.328;13.070;2023-03-01T08:50:04;6.40;99.90
12815;DHT22;6472;52.328;13.070;2023-03-01T08:52:32;6.70;99.90
12815;DHT22;6472;52.328;13.070;2023-03-01T08:55:00;7.00;99.90
12815;DHT22;6472;52.328;13.070;2023-03-01T08:57:29;7.40;99.90
12815;DHT22;6472;52.328;13.070;2023-03-01T08:59:57;7.60;96.10
12815;DHT22;6472;52.328;13.070;2023-03-01T09:02:25;7.80;99.90
12815;DHT22;6472;52.328;13.070;2023-03-01T09:04:53;8.10;98.70
12815;DHT22;6472;52.328;13.070;2023-03-01T09:07:22;8.40;97.10
12815;DHT22;6472;52.328;13.070;2023-03-01T09:09:55;8.80;96.50
12815;DHT22;6472;52.328;13.070;2023-03-01T09:12:23;9.00;94.20
12815;DHT22;6472;52.328;13.070;2023-03-01T09:14:51;9.20;90.10
12815;DHT22;6472;52.328;13.070;2023-03-01T09:17:19;9.50;85.70
12815;DHT22;6472;52.328;13.070;2023-03-01T09:19:48;9.60;80.50
12815;DHT22;6472;52.328;13.070;2023-03-01T09:22:16;9.60;81.90
12815;DHT22;6472;52.328;13.070;2023-03-01T09:24:46;9.50;77.70
12815;DHT22;6472;52.328;13.070;2023-03-01T09:27:14;9.50;74.20
12815;DHT22;6472;52.328;13.070;2023-03-01T09:29:45;9.90;74.60
12815;DHT22;6472;52.328;13.070;2023-03-01T09:32:13;10.40;71.00
12815;DHT22;6472;52.328;13.070;2023-03-01T09:34:41;10.40;68.40
12815;DHT22;6472;52.328;13.070;2023-03-01T09:37:27;10.80;68.40
12815;DHT22;6472;52.328;13.070;2023-03-01T09:39:56;10.90;64.60
12815;DHT22;6472;52.328;13.070;2023-03-01T09:42:25;11.10;64.20
12815;DHT22;6472;52.328;13.070;2023-03-01T09:44:57;11.20;60.90
12815;DHT22;6472;52.328;13.070;2023-03-01T09:47:29;10.60;58.80
12815;DHT22;6472;52.328;13.070;2023-03-01T09:50:02;10.60;59.40
12815;DHT22;6472;52.328;13.070;2023-03-01T09:52:36;10.70;59.20
12815;DHT22;6472;52.328;13.070;2023-03-01T09:55:11;10.80;58.90
12815;DHT22;6472;52.328;13.070;2023-03-01T09:57:46;10.70;58.50
12815;DHT22;6472;52.328;13.070;2023-03-01T10:00:30;10.60;58.60
12815;DHT22;6472;52.328;13.070;2023-03-01T10:03:10;10.20;60.80
12815;DHT22;6472;52.328;13.070;2023-03-01T10:05:47;10.00;60.10
12815;DHT22;6472;52.328;13.070;2023-03-01T10:08:32;9.80;60.10
12815;DHT22;6472;52.328;13.070;2023-03-01T10:11:05;9.40;61.10
12815;DHT22;6472;52.328;13.070;2023-03-01T10:13:50;9.10;61.90
12815;DHT22;6472;52.328;13.070;2023-03-01T10:16:24;8.60;63.40
12815;DHT22;6472;52.328;13.070;2023-03-01T10:18:58;8.80;62.90
12815;DHT22;6472;52.328;13.070;2023-03-01T10:21:28;8.70;62.80
12815;DHT22;6472;52.328;13.070;2023-03-01T10:24:08;8.50;61.60
12815;DHT22;6472;52.328;13.070;2023-03-01T10:26:48;8.30;62.20
12815;DHT22;6472;52.328;13.070;2023-03-01T10:29:23;7.80;63.10
12815;DHT22;6472;52.328;13.070;2023-03-01T10:31:53;7.90;65.20
12815;DHT22;6472;52.328;13.070;2023-03-01T10:34:26;8.00;63.60
12815;DHT22;6472;52.328;13.070;2023-03-01T10:36:58;8.00;64.20
12815;DHT22;6472;52.328;13.070;2023-03-01T10:39:28;8.10;65.90
12815;DHT22;6472;52.328;13.070;2023-03-01T10:42:02;8.30;65.80
12815;DHT22;6472;52.328;13.070;2023-03-01T10:44:42;8.40;62.70
12815;DHT22;6472;52.328;13.070;2023-03-01T10:47:20;8.30;61.80
12815;DHT22;6472;52.328;13.070;2023-03-01T10:50:00;8.30;59.00
12815;DHT22;6472;52.328;13.070;2023-03-01T10:52:32;8.30;58.50
12815;DHT22;6472;52.328;13.070;2023-03-01T10:55:04;8.20;57.40
12815;DHT22;6472;52.328;13.070;2023-03-01T10:57:49;7.90;59.00
12815;DHT22;6472;52.328;13.070;2023-03-01T11:00:21;7.80;59.50
12815;DHT22;6472;52.328;13.070;2023-03-01T11:02:51;7.80;62.30
12815;DHT22;6472;52.328;13.070;2023-03-01T11:05:29;7.80;63.20
12815;DHT22;6472;52.328;13.070;2023-03-01T11:08:01;7.80;64.60
12815;DHT22;6472;52.328;13.070;2023-03-01T11:10:32;7.80;62.00
12815;DHT22;6472;52.328;13.070;2023-03-01T11:13:14;7.70;61.30
12815;DHT22;6472;52.328;13.070;2023-03-01T11:15:43;7.30;61.50
12815;DHT22;6472;52.328;13.070;2023-03-01T11:18:26;7.10;63.60
12815;DHT22;6472;52.328;13.070;2023-03-01T11:21:13;7.10;65.20
12815;DHT22;6472;52.328;13.070;2023-03-01T11:23:43;7.10;65.20
12815;DHT22;6472;52.328;13.070;2023-03-01T11:26:15;6.90;65.00
12815;DHT22;6472;52.328;13.070;2023-03-01T11:28:53;6.90;64.20
12815;DHT22;6472;52.328;13.070;2023-03-01T11:31:23;6.80;65.20
12815;DHT22;6472;52.328;13.070;2023-03-01T11:33:55;6.70;64.70
12815;DHT22;6472;52.328;13.070;2023-03-01T11:36:31;6.60;64.80
12815;DHT22;6472;52.328;13.070;2023-03-01T11:39:12;6.50;65.60
12815;DHT22;6472;52.328;13.070;2023-03-01T11:41:46;6.40;66.80
12815;DHT22;6472;52.328;13.070;2023-03-01T11:44:24;6.30;67.20
12815;DHT22;6472;52.328;13.070;2023-03-01T11:47:07;6.40;68.00
12815;DHT22;6472;52.328;13.070;2023-03-01T11:50:07;6.50;67.30
12815;DHT22;6472;52.328;13.070;2023-03-01T11:52:48;6.40;67.10
12815;DHT22;6472;52.328;13.070;2023-03-01T11:55:36;6.40;65.80
12815;DHT22;6472;52.328;13.070;2023-03-01T11:58:19;6.40;64.30
12815;DHT22;6472;52.328;13.070;2023-03-01T12:01:02;6.50;65.20
12815;DHT22;6472;52.328;13.070;2023-03-01T12:03:51;6.50;65.60
12815;DHT22;6472;52.328;13.070;2023-03-01T12:06:29;6.50;65.60
12815;DHT22;6472;52.328;13.070;2023-03-01T12:09:15;6.50;65.00
12815;DHT22;6472;52.328;13.070;2023-03-01T12:12:00;6.60;64.50
12815;DHT22;6472;52.328;13.070;2023-03-01T12:17:47;6.50;65.10
12815;DHT22;6472;52.328;13.070;2023-03-01T12:20:28;6.70;65.10
12815;DHT22;6472;52.328;13.070;2023-03-01T12:23:20;6.80;65.50
12815;DHT22;6472;52.328;13.070;2023-03-01T12:25:55;6.80;63.90
12815;DHT22;6472;52.328;13.070;2023-03-01T12:28:44;6.80;66.10
12815;DHT22;6472;52.328;13.070;2023-03-01T12:31:48;6.80;64.60
12815;DHT22;6472;52.328;13.070;2023-03-01T12:34:31;6.90;64.20
12815;DHT22;6472;52.328;13.070;2023-03-01T12:37:13;6.90;62.60
12815;DHT22;6472;52.328;13.070;2023-03-01T12:39:53;7.00;63.00
12815;DHT22;6472;52.328;13.070;2023-03-01T12:42:28;7.00;62.70
12815;DHT22;6472;52.328;13.070;2023-03-01T12:45:14;7.00;63.90
12815;DHT22;6472;52.328;13.070;2023-03-01T12:48:01;7.10;64.50
12815;DHT22;6472;52.328;13.070;2023-03-01T12:50:41;7.20;64.80
12815;DHT22;6472;52.328;13.070;2023-03-01T12:53:20;7.20;63.60
12815;DHT22;6472;52.328;13.070;2023-03-01T12:55:50;7.20;64.70
12815;DHT22;6472;52.328;13.070;2023-03-01T12:58:24;7.30;64.40
12815;DHT22;6472;52.328;13.070;2023-03-01T13:01:15;7.30;65.40
12815;DHT22;6472;52.328;13.070;2023-03-01T13:04:02;7.40;63.40
12815;DHT22;6472;52.328;13.070;2023-03-01T13:06:37;7.50;64.70
12815;DHT22;6472;52.328;13.070;2023-03-01T13:09:16;7.50;64.00
12815;DHT22;6472;52.328;13.070;2023-03-01T13:11:46;7.40;62.60
12815;DHT22;6472;52.328;13.070;2023-03-01T13:14:37;7.30;62.70
12815;DHT22;6472;52.328;13.070;2023-03-01T13:17:31;7.40;63.60
12815;DHT22;6472;52.328;13.070;2023-03-01T13:20:00;7.40;65.60
12815;DHT22;6472;52.328;13.070;2023-03-01T13:22:33;7.40;61.40
12815;DHT22;6472;52.328;13.070;2023-03-01T13:25:17;7.40;61.30
12815;DHT22;6472;52.328;13.070;2023-03-01T13:27:46;7.60;63.60
12815;DHT22;6472;52.328;13.070;2023-03-01T13:30:40;7.50;63.50
12815;DHT22;6472;52.328;13.070;2023-03-01T13:33:44;7.50;62.20
12815;DHT22;6472;52.328;13.070;2023-03-01T13:36:47;7.60;62.40
12815;DHT22;6472;52.328;13.070;2023-03-01T13:39:31;7.70;63.30
12815;DHT22;6472;52.328;13.070;2023-03-01T13:42:00;7.70;60.80
12815;DHT22;6472;52.328;13.070;2023-03-01T13:44:32;7.70;59.90
12815;DHT22;6472;52.328;13.070;2023-03-01T13:47:12;7.60;60.80
12815;DHT22;6472;52.328;13.070;2023-03-01T13:49:47;7.60;61.10
12815;DHT22;6472;52.328;13.070;2023-03-01T13:52:42;7.60;60.30
12815;DHT22;6472;52.328;13.070;2023-03-01T13:55:18;7.60;59.80
12815;DHT22;6472;52.328;13.070;2023-03-01T13:57:48;7.50;60.60
12815;DHT22;6472;52.328;13.070;2023-03-01T14:00:29;7.40;59.10
12815;DHT22;6472;52.328;13.070;2023-03-01T14:03:20;7.40;59.70
12815;DHT22;6472;52.328;13.070;2023-03-01T14:06:00;7.30;59.20
12815;DHT22;6472;52.328;13.070;2023-03-01T14:08:41;7.20;59.00
12815;DHT22;6472;52.328;13.070;2023-03-01T14:11:37;7.00;59.80
12815;DHT22;6472;52.328;13.070;2023-03-01T14:14:23;7.00;59.40
12815;DHT22;6472;52.328;13.070;2023-03-01T14:17:02;7.10;59.30
12815;DHT22;6472;52.328;13.070;2023-03-01T14:19:34;7.00;59.90
12815;DHT22;6472;52.328;13.070;2023-03-01T14:22:10;7.00;59.20
12815;DHT22;6472;52.328;13.070;2023-03-01T14:24:46;7.00;59.00
12815;DHT22;6472;52.328;13.070;2023-03-01T14:27:17;6.90;59.30
12815;DHT22;6472;52.328;13.070;2023-03-01T14:29:54;6.90;59.70
12815;DHT22;6472;52.328;13.070;2023-03-01T14:32:25;6.80;59.70
12815;DHT22;6472;52.328;13.070;2023-03-01T14:34:55;6.80;59.70
12815;DHT22;6472;52.328;13.070;2023-03-01T14:37:26;7.00;58.60
12815;DHT22;6472;52.328;13.070;2023-03-01T14:39:56;6.90;58.40
12815;DHT22;6472;52.328;13.070;2023-03-01T14:42:29;6.70;59.20
12815;DHT22;6472;52.328;13.070;2023-03-01T14:45:00;6.60;59.20
12815;DHT22;6472;52.328;13.070;2023-03-01T14:47:30;6.50;59.70
12815;DHT22;6472;52.328;13.070;2023-03-01T14:50:02;6.50;59.10
12815;DHT22;6472;52.328;13.070;2023-03-01T14:52:34;6.40;60.10
12815;DHT22;6472;52.328;13.070;2023-03-01T14:55:05;6.40;59.30
12815;DHT22;6472;52.328;13.070;2023-03-01T14:57:36;6.40;59.20
12815;DHT22;6472;52.328;13.070;2023-03-01T15:00:06;6.50;59.10
12815;DHT22;6472;52.328;13.070;2023-03-01T15:02:35;6.50;58.60
12815;DHT22;6472;52.328;13.070;2023-03-01T15:05:06;6.40;59.00
12815;DHT22;6472;52.328;13.070;2023-03-01T15:07:39;6.40;59.80
12815;DHT22;6472;52.328;13.070;2023-03-01T15:10:17;6.40;58.10
12815;DHT22;6472;52.328;13.070;2023-03-01T15:12:48;6.40;58.30
12815;DHT22;6472;52.328;13.070;2023-03-01T15:15:34;6.40;57.60
12815;DHT22;6472;52.328;13.070;2023-03-01T15:18:05;6.30;58.50
12815;DHT22;6472;52.328;13.070;2023-03-01T15:20:34;6.20;59.00
12815;DHT22;6472;52.328;13.070;2023-03-01T15:23:05;6.10;59.60
12815;DHT22;6472;52.328;13.070;2023-03-01T15:25:33;6.10;59.10
12815;DHT22;6472;52.328;13.070;2023-03-01T15:28:04;6.00;59.90
12815;DHT22;6472;52.328;13.070;2023-03-01T15:30:34;6.00;59.20
12815;DHT22;6472;52.328;13.070;2023-03-01T15:33:28;6.10;59.20
12815;DHT22;6472;52.328;13.070;2023-03-01T15:35:57;6.00;59.10
12815;DHT22;6472;52.328;13.070;2023-03-01T15:38:34;6.10;59.60
12815;DHT22;6472;52.328;13.070;2023-03-01T15:41:21;5.80;59.50
12815;DHT22;6472;52.328;13.070;2023-03-01T15:43:52;5.90;60.70
12815;DHT22;6472;52.328;13.070;2023-03-01T15:46:25;5.70;60.50
12815;DHT22;6472;52.328;13.070;2023-03-01T15:48:55;5.70;61.00
12815;DHT22;6472;52.328;13.070;2023-03-01T15:51:32;5.70;62.20
12815;DHT22;6472;52.328;13.070;2023-03-01T15:54:05;5.60;61.90
12815;DHT22;6472;52.328;13.070;2023-03-01T15:56:33;5.40;62.60
12815;DHT22;6472;52.328;13.070;2023-03-01T15:59:03;5.30;62.80
12815;DHT22;6472;52.328;13.070;2023-03-01T16:01:31;5.20;63.70
12815;DHT22;6472;52.328;13.070;2023-03-01T16:04:01;5.10;64.90
12815;DHT22;6472;52.328;13.070;2023-03-01T16:06:30;4.90;66.80
12815;DHT22;6472;52.328;13.070;2023-03-01T16:08:58;4.60;67.90
12815;DHT22;6472;52.328;13.070;2023-03-01T16:11:26;4.40;69.10
12815;DHT22;6472;52.328;13.070;2023-03-01T16:13:54;4.20;71.00
12815;DHT22;6472;52.328;13.070;2023-03-01T16:16:24;4.00;73.10
12815;DHT22;6472;52.328;13.070;2023-03-01T16:18:52;3.80;74.60
12815;DHT22;6472;52.328;13.070;2023-03-01T16:21:23;3.60;76.60
12815;DHT22;6472;52.328;13.070;2023-03-01T16:23:52;3.40;79.10
12815;DHT22;6472;52.328;13.070;2023-03-01T16:26:20;3.20;80.20
12815;DHT22;6472;52.328;13.070;2023-03-01T16:28:48;3.10;82.60
12815;DHT22;6472;52.328;13.070;2023-03-01T16:31:18;2.90;83.50
12815;DHT22;6472;52.328;13.070;2023-03-01T16:33:56;2.70;85.50
12815;DHT22;6472;52.328;13.070;2023-03-01T16:36:26;2.40;87.30
12815;DHT22;6472;52.328;13.070;2023-03-01T16:38:55;2.30;88.90
12815;DHT22;6472;52.328;13.070;2023-03-01T16:41:25;2.10;90.00
12815;DHT22;6472;52.328;13.070;2023-03-01T16:43:53;2.00;90.60
12815;DHT22;6472;52.328;13.070;2023-03-01T16:46:24;1.80;90.70